createdAt,value
2018-02-20T00:00:31.520Z,52.17
2018-02-20T00:02:59.909Z,52.00
2018-02-20T00:05:28.327Z,55.63
2018-02-20T00:07:56.726Z,49.07
2018-02-20T00:10:25.135Z,45.33
2018-02-20T00:12:53.530Z,52.63
2018-02-20T00:15:22.662Z,48.80
2018-02-20T00:17:51.049Z,47.73
2018-02-20T00:20:19.419Z,45.40
2018-02-20T00:22:47.814Z,45.77
2018-02-20T00:25:16.234Z,52.87
2018-02-20T00:27:44.602Z,47.40
2018-02-20T00:30:13.004Z,45.17
2018-02-20T00:32:42.271Z,47.50
2018-02-20T00:35:10.721Z,48.80
2018-02-20T00:37:39.133Z,50.93
2018-02-20T00:40:07.580Z,50.50
2018-02-20T00:42:35.975Z,49.20
2018-02-20T00:45:04.430Z,47.27
2018-02-20T00:47:32.804Z,48.83
2018-02-20T00:50:01.258Z,54.20
2018-02-20T00:52:30.613Z,48.30
2018-02-20T00:54:58.979Z,53.30
2018-02-20T00:57:27.369Z,53.63
2018-02-20T00:59:55.839Z,61.40
2018-02-20T01:02:24.216Z,48.10
2018-02-20T01:04:52.598Z,54.07
2018-02-20T01:07:20.981Z,50.97
2018-02-20T01:09:49.367Z,52.70
2018-02-20T01:12:17.786Z,45.57
2018-02-20T01:14:46.174Z,51.00
2018-02-20T01:17:15.310Z,47.90
2018-02-20T01:19:43.761Z,57.10
2018-02-20T01:22:12.903Z,46.80
2018-02-20T01:24:41.319Z,51.00
2018-02-20T01:27:10.618Z,48.37
2018-02-20T01:29:39.869Z,47.73
2018-02-20T01:32:08.249Z,47.63
2018-02-20T01:34:36.623Z,44.60
2018-02-20T01:37:04.996Z,45.10
2018-02-20T01:39:33.382Z,46.87
2018-02-20T01:42:01.780Z,41.10
2018-02-20T01:44:30.222Z,54.37
2018-02-20T01:46:58.589Z,47.30
2018-02-20T01:49:26.972Z,44.47
2018-02-20T01:51:55.351Z,45.73
2018-02-20T01:54:23.808Z,48.40
2018-02-20T01:56:52.959Z,43.27
2018-02-20T01:59:21.336Z,43.60
2018-02-20T02:01:49.786Z,46.93
2018-02-20T02:04:18.187Z,46.37
2018-02-20T02:06:46.586Z,38.60
2018-02-20T02:09:14.970Z,48.97
2018-02-20T02:11:43.414Z,52.17
2018-02-20T02:14:11.793Z,45.13
2018-02-20T02:16:40.202Z,47.13
2018-02-20T02:19:08.597Z,44.33
2018-02-20T02:21:36.991Z,47.67
2018-02-20T02:24:06.160Z,44.43
2018-02-20T02:26:34.544Z,46.60
2018-02-20T02:29:02.923Z,45.97
2018-02-20T02:31:31.397Z,40.47
2018-02-20T02:33:59.792Z,46.23
2018-02-20T02:36:28.225Z,46.83
2018-02-20T02:38:56.592Z,44.10
2018-02-20T02:41:24.986Z,47.27
2018-02-20T02:43:53.408Z,44.27
2018-02-20T02:46:21.792Z,52.60
2018-02-20T02:48:50.949Z,44.90
2018-02-20T02:51:19.342Z,44.00
2018-02-20T02:53:47.740Z,42.00
2018-02-20T02:56:16.189Z,43.90
2018-02-20T02:58:44.662Z,45.60
2018-02-20T03:01:13.135Z,45.40
2018-02-20T03:03:41.510Z,47.47
2018-02-20T03:06:09.898Z,44.63
2018-02-20T03:08:38.287Z,44.50
2018-02-20T03:11:06.680Z,47.00
2018-02-20T03:13:35.100Z,47.97
2018-02-20T03:16:04.248Z,53.37
2018-02-20T03:18:32.666Z,49.23
2018-02-20T03:21:01.810Z,57.70
2018-02-20T03:23:30.275Z,47.13
2018-02-20T03:25:58.665Z,49.17
2018-02-20T03:28:27.041Z,54.77
2018-02-20T03:30:55.445Z,54.43
2018-02-20T03:33:23.865Z,55.93
2018-02-20T03:35:53.025Z,53.40
2018-02-20T03:38:21.448Z,49.77
2018-02-20T03:40:49.851Z,53.20
2018-02-20T03:43:18.212Z,51.53
2018-02-20T03:45:46.615Z,47.30
2018-02-20T03:48:15.015Z,62.00
2018-02-20T03:50:43.419Z,53.60
2018-02-20T03:53:12.657Z,59.50
2018-02-20T03:55:41.101Z,49.97
2018-02-20T03:58:09.483Z,61.53
2018-02-20T04:00:38.633Z,54.27
2018-02-20T04:03:07.104Z,53.87
2018-02-20T04:05:35.563Z,59.23
2018-02-20T04:08:03.941Z,47.77
2018-02-20T04:10:32.338Z,54.63
2018-02-20T04:13:00.748Z,49.30
2018-02-20T04:15:29.146Z,54.60
2018-02-20T04:17:57.582Z,49.97
2018-02-20T04:20:25.990Z,47.07
2018-02-20T04:22:54.392Z,47.10
2018-02-20T04:25:23.544Z,51.30
2018-02-20T04:27:51.939Z,55.27
2018-02-20T04:30:21.133Z,51.17
2018-02-20T04:32:49.524Z,54.63
2018-02-20T04:35:17.913Z,44.67
2018-02-20T04:37:46.308Z,55.40
2018-02-20T04:40:14.734Z,53.90
2018-02-20T04:42:43.135Z,58.43
2018-02-20T04:45:11.548Z,55.07
2018-02-20T04:47:40.770Z,55.20
2018-02-20T04:50:09.144Z,60.17
2018-02-20T04:52:37.525Z,54.93
2018-02-20T04:55:05.924Z,50.20
2018-02-20T04:57:34.322Z,57.80
2018-02-20T05:00:02.704Z,48.70
2018-02-20T05:02:31.102Z,53.23
2018-02-20T05:05:00.240Z,52.20
2018-02-20T05:07:28.638Z,54.07
2018-02-20T05:09:57.009Z,58.70
2018-02-20T05:12:25.420Z,55.40
2018-02-20T05:14:53.803Z,56.87
2018-02-20T05:17:22.250Z,58.37
2018-02-20T05:19:50.724Z,55.27
2018-02-20T05:22:19.108Z,54.60
2018-02-20T05:24:48.342Z,56.63
2018-02-20T05:27:16.759Z,54.30
2018-02-20T05:29:45.150Z,52.97
2018-02-20T05:32:13.524Z,55.80
2018-02-20T05:34:41.987Z,65.97
2018-02-20T05:37:10.428Z,58.10
2018-02-20T05:39:38.826Z,56.87
2018-02-20T05:42:07.972Z,56.90
2018-02-20T05:44:36.442Z,53.10
2018-02-20T05:47:04.820Z,57.53
2018-02-20T05:49:33.416Z,60.43
2018-02-20T05:52:01.790Z,60.10
2018-02-20T05:54:30.206Z,62.70
2018-02-20T05:56:58.640Z,59.30
2018-02-20T05:59:27.009Z,62.80
2018-02-20T06:01:55.400Z,58.33
2018-02-20T06:04:23.781Z,61.93
2018-02-20T06:06:52.191Z,61.67
2018-02-20T06:09:20.594Z,54.93
2018-02-20T06:11:48.966Z,61.93
2018-02-20T06:14:17.403Z,67.03
2018-02-20T06:16:45.778Z,85.23
2018-02-20T06:19:14.145Z,57.00
2018-02-20T06:21:42.569Z,59.43
2018-02-20T06:24:10.974Z,62.20
2018-02-20T06:26:40.112Z,65.07
2018-02-20T06:29:08.518Z,68.20
2018-02-20T06:31:36.923Z,69.27
2018-02-20T06:34:05.311Z,65.33
2018-02-20T06:36:34.468Z,69.47
2018-02-20T06:39:02.874Z,65.77
2018-02-20T06:41:31.254Z,68.30
2018-02-20T06:44:00.401Z,66.93
2018-02-20T06:46:28.781Z,64.70
2018-02-20T06:48:57.154Z,66.70
2018-02-20T06:51:25.591Z,70.10
2018-02-20T06:53:54.796Z,61.30
2018-02-20T06:56:23.137Z,62.30
2018-02-20T06:58:51.564Z,66.47
2018-02-20T07:01:19.946Z,66.40
2018-02-20T07:03:48.334Z,67.63
2018-02-20T07:06:16.742Z,74.67
2018-02-20T07:08:45.106Z,69.70
2018-02-20T07:11:13.506Z,68.47
2018-02-20T07:13:41.906Z,73.17
2018-02-20T07:16:10.317Z,69.90
2018-02-20T07:18:38.708Z,65.50
2018-02-20T07:21:07.155Z,63.37
2018-02-20T07:23:36.299Z,68.17
2018-02-20T07:26:04.671Z,70.00
2018-02-20T07:28:33.055Z,71.57
2018-02-20T07:31:01.537Z,65.33
2018-02-20T07:33:29.905Z,74.47
2018-02-20T07:35:58.313Z,69.50
2018-02-20T07:38:27.501Z,71.90
2018-02-20T07:40:55.854Z,64.60
2018-02-20T07:43:24.237Z,67.87
2018-02-20T07:45:52.597Z,72.03
2018-02-20T07:48:20.992Z,70.00
2018-02-20T07:50:49.396Z,66.00
2018-02-20T07:53:17.784Z,77.90
2018-02-20T07:55:46.152Z,74.40
2018-02-20T07:58:14.584Z,77.20
2018-02-20T08:00:43.736Z,79.50
2018-02-20T08:03:12.238Z,74.03
2018-02-20T08:05:40.610Z,82.00
2018-02-20T08:08:09.014Z,79.57
2018-02-20T08:10:38.177Z,86.40
2018-02-20T08:13:06.539Z,86.73
2018-02-20T08:15:34.925Z,83.37
2018-02-20T08:18:03.289Z,86.90
2018-02-20T08:20:31.655Z,96.10
2018-02-20T08:23:00.071Z,84.50
2018-02-20T08:25:28.559Z,90.40
2018-02-20T08:27:56.937Z,97.80
2018-02-20T08:30:25.311Z,91.03
2018-02-20T08:32:53.701Z,92.97
2018-02-20T08:35:22.069Z,88.57
2018-02-20T08:37:50.457Z,88.43
2018-02-20T08:40:22.577Z,86.23
2018-02-20T08:42:50.979Z,92.53
2018-02-20T08:45:19.353Z,94.37
2018-02-20T08:47:47.758Z,95.37
2018-02-20T08:50:16.131Z,102.67
2018-02-20T08:52:44.510Z,95.40
2018-02-20T08:55:12.900Z,93.10
2018-02-20T08:57:42.031Z,91.83
2018-02-20T09:00:10.417Z,94.17
2018-02-20T09:02:38.816Z,90.20
2018-02-20T09:05:07.201Z,77.60
2018-02-20T09:07:35.577Z,92.30
2018-02-20T09:10:04.044Z,98.17
2018-02-20T09:12:32.417Z,95.33
2018-02-20T09:15:00.802Z,101.07
2018-02-20T09:17:29.173Z,90.53
2018-02-20T09:19:57.575Z,92.33
2018-02-20T09:22:25.964Z,93.17
2018-02-20T09:24:54.382Z,99.00
2018-02-20T09:27:22.764Z,91.00
2018-02-20T09:29:51.133Z,90.17
2018-02-20T09:32:20.300Z,92.83
2018-02-20T09:34:48.696Z,92.53
2018-02-20T09:37:17.069Z,94.97
2018-02-20T09:39:45.468Z,95.63
2018-02-20T09:42:13.842Z,91.63
2018-02-20T09:44:42.274Z,90.50
2018-02-20T09:47:10.642Z,88.00
2018-02-20T09:49:39.048Z,82.23
2018-02-20T09:52:07.413Z,81.00
2018-02-20T09:54:35.811Z,87.57
2018-02-20T09:57:04.197Z,92.13
2018-02-20T09:59:32.562Z,82.73
2018-02-20T10:02:01.747Z,86.50
2018-02-20T10:04:30.118Z,97.23
2018-02-20T10:06:58.513Z,84.43
2018-02-20T10:09:26.885Z,81.67
2018-02-20T10:11:55.270Z,86.70
2018-02-20T10:14:23.679Z,86.73
2018-02-20T10:16:52.818Z,94.23
2018-02-20T10:19:21.192Z,91.00
2018-02-20T10:21:49.609Z,99.37
2018-02-20T10:24:17.985Z,89.80
2018-02-20T10:26:46.377Z,88.20
2018-02-20T10:29:14.766Z,88.07
2018-02-20T10:31:43.909Z,90.17
2018-02-20T10:34:12.305Z,90.20
2018-02-20T10:36:40.718Z,89.73
2018-02-20T10:39:09.906Z,91.37
2018-02-20T10:41:38.290Z,91.50
2018-02-20T10:44:06.673Z,97.00
2018-02-20T10:46:35.857Z,85.23
2018-02-20T10:49:04.240Z,96.13
2018-02-20T10:51:32.638Z,83.43
2018-02-20T10:54:01.037Z,89.50
2018-02-20T10:56:29.433Z,87.07
2018-02-20T10:58:57.836Z,82.60
2018-02-20T11:01:26.217Z,85.43
2018-02-20T11:03:54.590Z,92.30
2018-02-20T11:06:22.987Z,86.30
2018-02-20T11:08:51.360Z,84.70
2018-02-20T11:11:19.776Z,79.10
2018-02-20T11:13:48.169Z,84.60
2018-02-20T11:16:16.529Z,87.97
2018-02-20T11:18:44.930Z,80.67
2018-02-20T11:21:13.317Z,87.27
2018-02-20T11:23:41.690Z,85.60
2018-02-20T11:26:10.082Z,86.30
2018-02-20T11:28:38.471Z,77.50
2018-02-20T11:31:06.873Z,87.57
2018-02-20T11:33:35.248Z,86.23
2018-02-20T11:36:03.649Z,82.40
2018-02-20T11:38:32.021Z,82.87
2018-02-20T11:41:01.204Z,90.73
2018-02-20T11:43:29.569Z,92.90
2018-02-20T11:45:57.980Z,79.50
2018-02-20T11:48:26.409Z,86.60
2018-02-20T11:50:55.550Z,83.23
2018-02-20T11:53:24.678Z,74.63
2018-02-20T11:55:53.087Z,78.00
2018-02-20T11:58:21.487Z,85.03
2018-02-20T12:00:49.876Z,87.63
2018-02-20T12:03:19.025Z,77.87
2018-02-20T12:05:47.408Z,76.93
2018-02-20T12:08:15.782Z,85.97
2018-02-20T12:10:44.199Z,76.97
2018-02-20T12:13:12.629Z,80.70
2018-02-20T12:15:41.011Z,77.87
2018-02-20T12:18:09.438Z,82.03
2018-02-20T12:20:37.813Z,84.77
2018-02-20T12:23:06.191Z,82.23
2018-02-20T12:25:34.601Z,77.70
2018-02-20T12:28:02.974Z,78.57
2018-02-20T12:30:31.381Z,79.57
2018-02-20T12:32:59.824Z,69.10
2018-02-20T12:35:28.246Z,73.00
2018-02-20T12:37:56.722Z,77.90
2018-02-20T12:40:25.128Z,80.20
2018-02-20T12:42:53.519Z,82.07
2018-02-20T12:45:21.903Z,80.50
2018-02-20T12:47:50.345Z,85.03
2018-02-20T12:50:18.773Z,88.37
2018-02-20T12:52:47.150Z,76.47
2018-02-20T12:55:15.538Z,84.30
2018-02-20T12:57:44.703Z,84.10
2018-02-20T13:00:13.138Z,81.17
2018-02-20T13:02:41.713Z,92.93
2018-02-20T13:05:10.122Z,79.30
2018-02-20T13:07:39.311Z,91.30
2018-02-20T13:10:07.766Z,84.63
2018-02-20T13:12:36.187Z,84.97
2018-02-20T13:15:04.558Z,83.77
2018-02-20T13:17:33.051Z,87.73
2018-02-20T13:20:01.430Z,88.50
2018-02-20T13:22:29.859Z,101.37
2018-02-20T13:24:58.289Z,96.23
2018-02-20T13:27:26.749Z,93.13
2018-02-20T13:29:55.225Z,90.13
2018-02-20T13:32:23.605Z,98.53
2018-02-20T13:34:52.033Z,89.37
2018-02-20T13:37:20.402Z,89.90
2018-02-20T13:39:48.793Z,95.17
2018-02-20T13:42:17.360Z,95.33
2018-02-20T13:44:45.838Z,95.37
2018-02-20T13:47:14.227Z,104.77
2018-02-20T13:49:42.754Z,102.07
2018-02-20T13:52:12.257Z,103.13
2018-02-20T13:54:40.670Z,108.50
2018-02-20T13:57:09.075Z,104.47
2018-02-20T13:59:37.453Z,97.57
2018-02-20T14:02:05.883Z,101.37
2018-02-20T14:04:34.283Z,98.93
2018-02-20T14:07:02.689Z,95.80
2018-02-20T14:09:31.103Z,106.87
2018-02-20T14:12:00.236Z,101.07
2018-02-20T14:14:28.642Z,98.77
2018-02-20T14:16:57.033Z,102.20
2018-02-20T14:19:25.661Z,101.63
2018-02-20T14:21:54.038Z,101.60
2018-02-20T14:24:22.435Z,97.07
2018-02-20T14:26:50.998Z,103.67
2018-02-20T14:29:19.425Z,102.20
2018-02-20T14:31:47.795Z,95.47
2018-02-20T14:34:16.210Z,98.40
2018-02-20T14:36:45.486Z,95.00
2018-02-20T14:39:13.907Z,98.50
2018-02-20T14:41:42.313Z,89.00
2018-02-20T14:44:10.690Z,89.10
2018-02-20T14:46:39.279Z,103.07
2018-02-20T14:49:07.809Z,95.20
2018-02-20T14:51:36.342Z,93.93
2018-02-20T14:54:04.802Z,96.77
2018-02-20T14:56:33.211Z,102.63
2018-02-20T14:59:01.598Z,104.90
2018-02-20T15:01:30.192Z,105.83
2018-02-20T15:03:58.598Z,105.73
2018-02-20T15:06:26.998Z,111.57
2018-02-20T15:08:55.426Z,118.87
2018-02-20T15:11:23.802Z,111.47
2018-02-20T15:13:52.665Z,108.53
2018-02-20T15:16:21.135Z,107.37
2018-02-20T15:18:49.525Z,115.00
2018-02-20T15:21:17.912Z,112.47
2018-02-20T15:23:46.312Z,120.07
2018-02-20T15:26:14.692Z,124.10
2018-02-20T15:28:43.074Z,134.13
2018-02-20T15:31:11.471Z,133.93
2018-02-20T15:33:39.918Z,126.93
2018-02-20T15:36:08.315Z,124.60
2018-02-20T15:38:36.691Z,130.60
2018-02-20T15:41:05.097Z,137.87
2018-02-20T15:43:33.569Z,125.33
2018-02-20T15:46:02.768Z,123.67
2018-02-20T15:48:31.158Z,137.80
2018-02-20T15:50:59.551Z,127.63
2018-02-20T15:53:27.965Z,125.67
2018-02-20T15:55:56.345Z,123.53
2018-02-20T15:58:24.746Z,126.63
2018-02-20T16:00:53.908Z,124.80
2018-02-20T16:03:22.301Z,121.17
2018-02-20T16:05:50.730Z,106.43
2018-02-20T16:08:19.103Z,120.10
2018-02-20T16:10:47.542Z,114.80
2018-02-20T16:13:16.040Z,127.53
2018-02-20T16:15:49.332Z,109.50
2018-02-20T16:18:18.534Z,128.87
2018-02-20T16:20:47.680Z,123.40
2018-02-20T16:23:16.087Z,112.27
2018-02-20T16:25:44.472Z,121.87
2018-02-20T16:28:12.852Z,120.80
2018-02-20T16:30:41.233Z,122.57
2018-02-20T16:33:09.668Z,113.63
2018-02-20T16:35:38.057Z,113.50
2018-02-20T16:38:06.422Z,121.37
2018-02-20T16:40:34.814Z,117.67
2018-02-20T16:43:03.194Z,120.90
2018-02-20T16:45:31.634Z,109.13
2018-02-20T16:48:00.027Z,117.70
2018-02-20T16:50:28.453Z,114.13
2018-02-20T16:52:56.836Z,105.80
2018-02-20T16:55:25.243Z,109.97
2018-02-20T16:57:54.414Z,118.47
2018-02-20T17:00:22.785Z,117.50
2018-02-20T17:02:51.375Z,115.30
2018-02-20T17:05:19.790Z,106.17
2018-02-20T17:07:48.157Z,113.43
2018-02-20T17:10:17.383Z,116.47
2018-02-20T17:12:45.759Z,112.10
2018-02-20T17:15:14.148Z,118.43
2018-02-20T17:17:42.544Z,115.87
2018-02-20T17:20:10.958Z,109.47
2018-02-20T17:22:39.330Z,119.80
2018-02-20T17:25:07.750Z,119.03
2018-02-20T17:27:36.180Z,109.57
2018-02-20T17:30:04.586Z,102.97
2018-02-20T17:32:33.767Z,109.93
2018-02-20T17:35:02.136Z,105.40
2018-02-20T17:37:30.540Z,111.67
2018-02-20T17:39:59.713Z,112.70
2018-02-20T17:42:28.109Z,124.87
2018-02-20T17:44:57.266Z,115.07
2018-02-20T17:47:26.410Z,113.43
2018-02-20T17:49:55.630Z,110.13
2018-02-20T17:52:24.019Z,100.20
2018-02-20T17:54:52.458Z,110.67
2018-02-20T17:57:21.606Z,103.30
2018-02-20T17:59:49.998Z,104.33
2018-02-20T18:02:18.409Z,99.80
2018-02-20T18:04:47.585Z,97.00
2018-02-20T18:07:15.987Z,93.80
2018-02-20T18:09:44.380Z,89.23
2018-02-20T18:12:12.779Z,98.40
2018-02-20T18:14:41.187Z,85.27
2018-02-20T18:17:09.565Z,83.20
2018-02-20T18:19:37.949Z,89.83
2018-02-20T18:22:06.334Z,91.20
2018-02-20T18:24:34.777Z,88.47
2018-02-20T18:27:03.221Z,75.23
2018-02-20T18:29:32.406Z,83.57
2018-02-20T18:32:00.868Z,83.30
2018-02-20T18:34:29.330Z,83.97
2018-02-20T18:36:57.872Z,76.00
2018-02-20T18:39:27.067Z,90.23
2018-02-20T18:41:56.253Z,71.93
2018-02-20T18:44:24.701Z,78.50
2018-02-20T18:46:53.124Z,75.33
2018-02-20T18:49:22.299Z,70.73
2018-02-20T18:51:50.690Z,73.67
2018-02-20T18:54:19.844Z,81.77
2018-02-20T18:56:48.243Z,75.73
2018-02-20T18:59:16.621Z,80.70
2018-02-20T19:01:45.034Z,79.13
2018-02-20T19:04:14.193Z,76.90
2018-02-20T19:06:42.602Z,79.80
2018-02-20T19:09:11.783Z,83.47
2018-02-20T19:11:40.156Z,79.97
2018-02-20T19:14:08.558Z,83.10
2018-02-20T19:16:37.744Z,81.40
2018-02-20T19:19:06.108Z,78.30
2018-02-20T19:21:34.545Z,78.70
2018-02-20T19:24:02.910Z,76.97
2018-02-20T19:26:31.338Z,80.60
2018-02-20T19:28:59.750Z,66.47
2018-02-20T19:31:28.922Z,69.97
2018-02-20T19:33:57.317Z,67.43
2018-02-20T19:36:26.466Z,71.53
2018-02-20T19:38:55.039Z,71.60
2018-02-20T19:41:23.464Z,70.43
2018-02-20T19:43:51.848Z,63.77
2018-02-20T19:46:20.213Z,75.17
2018-02-20T19:48:48.745Z,65.87
2018-02-20T19:51:17.106Z,68.07
2018-02-20T19:53:45.496Z,85.80
2018-02-20T19:56:13.854Z,67.47
2018-02-20T19:58:43.011Z,66.50
2018-02-20T20:01:11.400Z,65.20
2018-02-20T20:03:39.781Z,67.33
2018-02-20T20:06:08.180Z,62.03
2018-02-20T20:08:36.562Z,72.43
2018-02-20T20:11:05.799Z,61.83
2018-02-20T20:13:34.171Z,66.80
2018-02-20T20:16:02.548Z,71.53
2018-02-20T20:18:30.957Z,68.43
2018-02-20T20:20:59.376Z,63.90
2018-02-20T20:23:28.546Z,68.93
2018-02-20T20:25:56.943Z,72.60
2018-02-20T20:28:25.340Z,65.60
2018-02-20T20:30:53.765Z,64.97
2018-02-20T20:33:22.196Z,68.83
2018-02-20T20:35:51.375Z,65.20
2018-02-20T20:38:19.800Z,64.13
2018-02-20T20:40:48.180Z,69.10
2018-02-20T20:43:16.552Z,63.57
2018-02-20T20:45:44.971Z,65.73
2018-02-20T20:48:13.341Z,59.80
2018-02-20T20:50:41.738Z,59.17
2018-02-20T20:53:10.121Z,65.40
2018-02-20T20:55:39.387Z,56.53
2018-02-20T20:58:07.788Z,59.53
2018-02-20T21:00:36.155Z,65.60
2018-02-20T21:03:04.557Z,59.97
2018-02-20T21:05:32.960Z,63.57
2018-02-20T21:08:02.099Z,58.30
2018-02-20T21:10:30.621Z,60.93
2018-02-20T21:12:59.818Z,60.63
2018-02-20T21:15:28.221Z,57.40
2018-02-20T21:17:56.607Z,57.30
2018-02-20T21:20:25.020Z,54.43
2018-02-20T21:22:53.470Z,53.60
2018-02-20T21:25:22.636Z,51.13
2018-02-20T21:27:51.022Z,49.20
2018-02-20T21:30:20.206Z,45.13
2018-02-20T21:32:48.650Z,47.00
2018-02-20T21:35:17.011Z,45.60
2018-02-20T21:37:45.420Z,52.40
2018-02-20T21:40:13.842Z,43.47
2018-02-20T21:42:42.983Z,47.03
2018-02-20T21:45:11.399Z,46.13
2018-02-20T21:47:39.791Z,43.90
2018-02-20T21:50:08.941Z,48.80
2018-02-20T21:52:37.338Z,48.40
2018-02-20T21:55:05.866Z,46.53
2018-02-20T21:57:34.250Z,52.73
2018-02-20T22:00:02.670Z,43.40
2018-02-20T22:02:31.065Z,53.63
2018-02-20T22:04:59.443Z,42.30
2018-02-20T22:07:27.859Z,46.67
2018-02-20T22:09:56.249Z,47.07
2018-02-20T22:12:24.733Z,48.10
2018-02-20T22:14:53.127Z,47.93
2018-02-20T22:17:21.534Z,43.33
2018-02-20T22:19:49.945Z,48.53
2018-02-20T22:22:18.333Z,44.63
2018-02-20T22:24:46.704Z,47.27
2018-02-20T22:27:15.912Z,42.13
2018-02-20T22:29:44.297Z,46.37
2018-02-20T22:32:12.700Z,44.07
2018-02-20T22:34:41.090Z,45.53
2018-02-20T22:37:09.494Z,42.80
2018-02-20T22:39:37.892Z,43.20
2018-02-20T22:42:07.133Z,45.20
2018-02-20T22:44:35.616Z,40.37
2018-02-20T22:47:04.050Z,45.23
2018-02-20T22:49:33.206Z,44.40
2018-02-20T22:52:01.591Z,46.70
2018-02-20T22:54:29.990Z,45.97
2018-02-20T22:56:58.379Z,39.33
2018-02-20T22:59:27.608Z,45.33
2018-02-20T23:01:56.015Z,39.33
2018-02-20T23:04:24.458Z,45.50
2018-02-20T23:06:52.864Z,44.87
2018-02-20T23:09:21.332Z,47.60
2018-02-20T23:11:49.703Z,41.37
2018-02-20T23:14:18.075Z,49.73
2018-02-20T23:16:46.710Z,43.67
2018-02-20T23:19:15.089Z,42.73
2018-02-20T23:21:43.481Z,49.63
2018-02-20T23:24:11.922Z,43.40
2018-02-20T23:26:40.341Z,45.07
2018-02-20T23:29:08.776Z,40.10
2018-02-20T23:31:37.184Z,43.10
2018-02-20T23:34:05.566Z,41.87
2018-02-20T23:36:33.980Z,42.67
2018-02-20T23:39:02.517Z,41.37
2018-02-20T23:41:30.945Z,41.77
2018-02-20T23:43:59.344Z,44.90
2018-02-20T23:46:27.768Z,41.27
2018-02-20T23:48:56.151Z,46.67
2018-02-20T23:51:29.980Z,43.90
2018-02-20T23:53:59.149Z,41.10
2018-02-20T23:56:27.519Z,37.17
2018-02-20T23:58:55.936Z,41.23
